Green Concordia — D5IV3 — position and weather

sailwx.info

Track history (hours):
 
Tides and Currents Weather Stations Pressure Air Temp Water Temp Dewpoint Dewpoint Depression Visibility Wind Speed Wind Dir Waves Ship Positions

Green Concordia

Last reported at 2018-Jun-03 20:05 UTC. Time now 2018-Jun-25 01:56 UTC.
Position N 40°43' E 028°30'.
Warning: this ship's position is 21 days out of date.

Length 121 m; draft 5.3 m.

Type: Cargo ship. MMSI: 636016998.

Date/timePositionNaut miles runAvg speedWind from/ knotsBaromVisibWave heightAir tempDewpointWater temp
2018-Jun-03 20:05N 40°43' E 028°30'  
2018-May-30 21:13N 36°53' E 000°31'316.6
2018-May-30 21:00N 36°52' E 000°27'816.6
2018-May-30 20:30N 36°51' E 000°17'816.6
2018-May-30 20:00N 36°49' E 000°06'25917.0
2018-May-30 04:50N 36°00' W 005°09'619.7
2018-May-30 04:30N 35°60' W 005°17'1019.0
2018-May-30 04:00N 35°57' W 005°28'1017.5
2018-May-30 03:26N 35°54' W 005°40'  
Track history (hours):
 
Tides and Currents Weather Stations Pressure Air Temp Water Temp Dewpoint Dewpoint Depression Visibility Wind Speed Wind Dir Waves Ship Positions

Green Concordia

Last reported at 2018-Jun-03 20:05 UTC. Time now 2018-Jun-25 01:56 UTC.
Position N 40°43' E 028°30'.
Warning: this ship's position is 21 days out of date.

Length 121 m; draft 5.3 m.

Type: Cargo ship. MMSI: 636016998.

Date/timePositionNaut miles runAvg speedWind from/ knotsBaromVisibWave heightAir tempDewpointWater temp
2018-Jun-03 20:05N 40°43' E 028°30'  
2018-May-30 21:13N 36°53' E 000°31'316.6
2018-May-30 21:00N 36°52' E 000°27'816.6
2018-May-30 20:30N 36°51' E 000°17'816.6
2018-May-30 20:00N 36°49' E 000°06'25917.0
2018-May-30 04:50N 36°00' W 005°09'619.7
2018-May-30 04:30N 35°60' W 005°17'1019.0
2018-May-30 04:00N 35°57' W 005°28'1017.5
2018-May-30 03:26N 35°54' W 005°40'  

Dump ship's entire track history